createdAt,value
2022-10-02T00:02:08.805Z,24.50
2022-10-02T00:07:13.425Z,24.47
2022-10-02T00:12:20.942Z,24.49
2022-10-02T00:17:33.708Z,24.48
2022-10-02T00:22:50.849Z,24.45
2022-10-02T00:28:07.414Z,24.46
2022-10-02T00:33:31.568Z,24.46
2022-10-02T00:38:44.811Z,24.43
2022-10-02T00:44:26.956Z,24.44
2022-10-02T00:49:44.729Z,24.45
2022-10-02T00:55:14.503Z,24.44
2022-10-02T01:00:19.913Z,24.40
2022-10-02T01:05:26.403Z,24.39
2022-10-02T01:10:33.758Z,24.36
2022-10-02T01:15:42.421Z,24.32
2022-10-02T01:20:53.260Z,24.30
2022-10-02T01:25:57.599Z,24.29
2022-10-02T01:31:11.555Z,24.31
2022-10-02T01:36:16.584Z,24.29
2022-10-02T01:41:20.602Z,24.27
2022-10-02T01:46:46.225Z,24.22
2022-10-02T01:52:01.944Z,24.18
2022-10-02T01:57:24.201Z,24.15
2022-10-02T02:02:38.334Z,24.09
2022-10-02T02:08:15.269Z,24.07
2022-10-02T02:13:39.550Z,24.07
2022-10-02T02:19:05.483Z,24.05
2022-10-02T02:24:18.458Z,24.04
2022-10-02T02:29:25.165Z,24.02
2022-10-02T02:34:36.670Z,24.02
2022-10-02T02:39:52.360Z,24.01
2022-10-02T02:45:05.702Z,24.00
2022-10-02T02:50:15.422Z,23.97
2022-10-02T02:55:23.957Z,23.98
2022-10-02T03:00:27.483Z,23.97
2022-10-02T03:05:32.669Z,23.96
2022-10-02T03:10:44.988Z,23.93
2022-10-02T03:15:54.904Z,23.91
2022-10-02T03:21:23.030Z,23.88
2022-10-02T03:26:37.645Z,23.86
2022-10-02T03:31:42.192Z,23.84
2022-10-02T03:36:47.093Z,23.81
2022-10-02T03:41:50.511Z,23.79
2022-10-02T03:46:53.775Z,23.76
2022-10-02T03:51:57.043Z,23.74
2022-10-02T03:57:05.334Z,23.72
2022-10-02T04:02:33.278Z,23.70
2022-10-02T04:07:40.418Z,23.68
2022-10-02T04:12:52.465Z,23.71
2022-10-02T04:18:08.189Z,23.77
2022-10-02T04:23:22.659Z,23.81
2022-10-02T04:28:39.534Z,23.89
2022-10-02T04:33:43.001Z,23.95
2022-10-02T04:39:01.444Z,24.13
2022-10-02T04:44:17.278Z,24.29
2022-10-02T04:49:55.599Z,24.42
2022-10-02T04:55:25.906Z,24.54
2022-10-02T05:00:44.232Z,25.47
2022-10-02T05:06:22.537Z,26.33
2022-10-02T05:11:31.902Z,27.09
2022-10-02T05:16:52.436Z,27.18
2022-10-02T05:22:32.613Z,27.00
2022-10-02T05:27:58.758Z,26.65
2022-10-02T05:33:08.334Z,26.36
2022-10-02T05:38:42.368Z,26.17
2022-10-02T05:44:10.839Z,26.04
2022-10-02T05:49:33.884Z,26.12
2022-10-02T05:55:22.475Z,26.14
2022-10-02T06:01:07.291Z,26.08
2022-10-02T06:06:23.230Z,25.94
2022-10-02T06:11:35.608Z,25.91
2022-10-02T06:16:51.833Z,26.03
2022-10-02T06:22:06.473Z,26.21
2022-10-02T06:27:21.451Z,26.33
2022-10-02T06:32:34.111Z,26.29
2022-10-02T06:37:52.110Z,26.13
2022-10-02T06:43:14.266Z,26.03
2022-10-02T06:48:35.065Z,26.01
2022-10-02T06:54:15.330Z,26.04
2022-10-02T06:59:47.404Z,26.06
2022-10-02T07:05:09.012Z,26.13
2022-10-02T07:10:27.492Z,26.24
2022-10-02T07:15:50.468Z,26.35
2022-10-02T07:21:08.687Z,26.43
2022-10-02T07:26:31.312Z,26.54
2022-10-02T07:32:06.313Z,26.62
2022-10-02T07:37:35.099Z,26.68
2022-10-02T07:43:00.644Z,26.74
2022-10-02T07:48:09.873Z,26.80
2022-10-02T07:53:33.934Z,26.94
2022-10-02T07:59:12.470Z,27.19
2022-10-02T08:04:21.561Z,27.38
2022-10-02T08:09:46.105Z,27.51
2022-10-02T08:14:52.665Z,27.48
2022-10-02T08:20:04.242Z,27.42
2022-10-02T08:25:26.014Z,27.45
2022-10-02T08:30:29.272Z,27.49
2022-10-02T08:36:08.529Z,27.50
2022-10-02T08:41:32.726Z,27.52
2022-10-02T08:47:36.294Z,27.65
2022-10-02T08:52:58.246Z,27.75
2022-10-02T08:58:19.343Z,27.87
2022-10-02T09:03:44.544Z,27.95
2022-10-02T09:09:19.103Z,27.99
2022-10-02T09:14:44.536Z,27.91
2022-10-02T09:20:21.258Z,27.90
2022-10-02T09:25:58.662Z,28.01
2022-10-02T09:31:26.092Z,28.05
2022-10-02T09:36:51.315Z,28.13
2022-10-02T09:42:09.443Z,28.20
2022-10-02T09:47:31.059Z,28.11
2022-10-02T09:53:12.963Z,28.07
2022-10-02T09:58:38.415Z,28.02
2022-10-02T10:03:42.125Z,27.96
2022-10-02T10:08:48.357Z,27.95
2022-10-02T10:14:26.383Z,27.91
2022-10-02T10:19:47.647Z,27.89
2022-10-02T10:25:09.864Z,27.91
2022-10-02T10:30:20.142Z,28.00
2022-10-02T10:36:08.717Z,28.04
2022-10-02T10:41:52.358Z,28.04
2022-10-02T10:47:20.773Z,27.99
2022-10-02T10:52:42.756Z,27.94
2022-10-02T10:58:22.800Z,27.83
2022-10-02T11:04:06.827Z,27.79
2022-10-02T11:09:30.741Z,27.78
2022-10-02T11:14:52.668Z,27.81
2022-10-02T11:20:14.687Z,27.78
2022-10-02T11:25:33.776Z,27.85
2022-10-02T11:31:22.336Z,27.92
2022-10-02T11:36:55.480Z,27.81
2022-10-02T11:42:31.701Z,27.85
2022-10-02T11:48:02.700Z,27.82
2022-10-02T11:53:27.599Z,27.88
2022-10-02T11:58:45.230Z,27.98
2022-10-02T12:04:26.345Z,28.01
2022-10-02T12:10:02.358Z,27.98
2022-10-02T12:15:12.185Z,27.98
2022-10-02T12:21:09.256Z,27.90
2022-10-02T12:26:36.823Z,27.73
2022-10-02T12:32:42.100Z,27.66
2022-10-02T12:38:16.415Z,27.57
2022-10-02T12:43:50.073Z,27.56
2022-10-02T12:49:01.771Z,27.52
2022-10-02T12:54:43.166Z,27.51
2022-10-02T12:59:57.688Z,27.45
2022-10-02T13:05:22.662Z,27.33
2022-10-02T13:10:32.175Z,27.27
2022-10-02T13:15:52.267Z,27.19
2022-10-02T13:21:02.681Z,27.18
2022-10-02T13:26:16.134Z,27.20
2022-10-02T13:31:50.410Z,27.08
2022-10-02T13:37:35.340Z,26.91
2022-10-02T13:43:03.200Z,26.89
2022-10-02T13:48:12.611Z,26.85
2022-10-02T13:53:42.962Z,26.76
2022-10-02T13:59:13.369Z,26.69
2022-10-02T14:04:31.906Z,26.73
2022-10-02T14:09:59.468Z,26.67
2022-10-02T14:15:08.396Z,26.65
2022-10-02T14:20:27.713Z,26.60
2022-10-02T14:26:06.874Z,26.57
2022-10-02T14:31:16.806Z,26.56
2022-10-02T14:36:31.148Z,26.54
2022-10-02T14:41:49.506Z,26.44
2022-10-02T14:47:31.382Z,26.31
2022-10-02T14:52:49.603Z,26.27
2022-10-02T14:58:01.126Z,26.18
2022-10-02T15:03:22.872Z,26.07
2022-10-02T15:08:54.198Z,26.01
2022-10-02T15:14:43.971Z,25.85
2022-10-02T15:20:15.041Z,25.71
2022-10-02T15:25:49.140Z,25.59
2022-10-02T15:31:26.640Z,25.52
2022-10-02T15:36:45.770Z,25.45
2022-10-02T15:42:10.606Z,25.42
2022-10-02T15:47:45.728Z,25.36
2022-10-02T15:53:26.812Z,25.33
2022-10-02T15:59:07.081Z,25.33
2022-10-02T16:04:44.010Z,25.34
2022-10-02T16:10:19.552Z,25.31
2022-10-02T16:15:36.464Z,25.25
2022-10-02T16:20:58.130Z,25.20
2022-10-02T16:26:07.374Z,25.16
2022-10-02T16:31:37.551Z,25.11
2022-10-02T16:37:27.206Z,25.08
2022-10-02T16:43:09.767Z,25.05
2022-10-02T16:48:26.767Z,25.00
2022-10-02T16:53:36.450Z,24.99
2022-10-02T16:58:49.485Z,24.99
2022-10-02T17:04:14.561Z,24.96
2022-10-02T17:09:21.566Z,24.93
2022-10-02T17:14:45.668Z,24.89
2022-10-02T17:20:03.789Z,24.87
2022-10-02T17:25:25.286Z,24.85
2022-10-02T17:30:43.676Z,24.85
2022-10-02T17:36:01.527Z,24.80
2022-10-02T17:41:35.404Z,24.72
2022-10-02T17:46:57.443Z,24.65
2022-10-02T17:52:32.967Z,24.57
2022-10-02T17:58:02.200Z,24.53
2022-10-02T18:03:24.068Z,24.45
2022-10-02T18:08:41.355Z,24.38
2022-10-02T18:14:02.943Z,24.35
2022-10-02T18:19:31.906Z,24.32
2022-10-02T18:24:52.921Z,24.31
2022-10-02T18:30:12.685Z,24.30
2022-10-02T18:35:31.621Z,24.25
2022-10-02T18:40:53.261Z,24.22
2022-10-02T18:46:11.799Z,24.19
2022-10-02T18:51:28.859Z,24.17
2022-10-02T18:57:02.859Z,24.16
2022-10-02T19:02:23.010Z,24.14
2022-10-02T19:07:35.974Z,24.11
2022-10-02T19:12:43.353Z,24.10
2022-10-02T19:17:58.320Z,24.09
2022-10-02T19:23:03.093Z,24.07
2022-10-02T19:28:06.724Z,24.07
2022-10-02T19:33:20.784Z,24.06
2022-10-02T19:38:36.660Z,24.05
2022-10-02T19:44:03.364Z,24.03
2022-10-02T19:49:08.750Z,24.03
2022-10-02T19:54:27.290Z,24.00
2022-10-02T19:59:48.884Z,24.00
2022-10-02T20:05:00.338Z,23.97
2022-10-02T20:10:36.341Z,23.97
2022-10-02T20:15:49.135Z,23.93
2022-10-02T20:21:00.318Z,23.94
2022-10-02T20:26:08.611Z,23.92
2022-10-02T20:31:25.145Z,23.89
2022-10-02T20:36:55.256Z,23.87
2022-10-02T20:42:06.824Z,23.86
2022-10-02T20:47:27.837Z,23.85
2022-10-02T20:53:02.114Z,23.83
2022-10-02T20:58:35.355Z,23.83
2022-10-02T21:04:00.239Z,23.81
2022-10-02T21:09:37.238Z,23.77
2022-10-02T21:14:46.373Z,23.76
2022-10-02T21:20:27.512Z,23.73
2022-10-02T21:25:54.954Z,23.71
2022-10-02T21:31:39.304Z,23.68
2022-10-02T21:36:47.503Z,23.68
2022-10-02T21:41:50.687Z,23.66
2022-10-02T21:47:33.501Z,23.66
2022-10-02T21:52:59.256Z,23.60
2022-10-02T21:58:54.532Z,23.57
2022-10-02T22:04:13.254Z,23.57
2022-10-02T22:09:32.830Z,23.54
2022-10-02T22:14:41.641Z,23.53
2022-10-02T22:19:50.713Z,23.51
2022-10-02T22:25:36.538Z,23.49
2022-10-02T22:31:20.562Z,23.48
2022-10-02T22:37:15.207Z,23.50
2022-10-02T22:42:38.688Z,23.48
2022-10-02T22:47:58.277Z,23.45
2022-10-02T22:53:15.289Z,23.45
2022-10-02T22:58:30.866Z,23.45
2022-10-02T23:03:42.688Z,23.50
2022-10-02T23:08:51.756Z,23.55
2022-10-02T23:14:02.743Z,23.59
2022-10-02T23:19:18.907Z,23.60
2022-10-02T23:24:32.062Z,23.60
2022-10-02T23:29:54.297Z,23.61
2022-10-02T23:35:01.521Z,23.50
2022-10-02T23:40:15.660Z,23.47
2022-10-02T23:45:44.551Z,23.39
2022-10-02T23:51:25.435Z,23.31
2022-10-02T23:56:46.782Z,23.24
